UAL546 TTCP-TTPP
Flight info
| Callsign | UAL546 |
|---|---|
| Flight time | 0h 16m |
| Altitude | 10000 |
| Route | NAPKO DCT LEXOR DCT TALUS |
| Aircraft | A20N/M-SDE2E3FGHIRWXY/LB1 |
Departure
| Time | 2026-04-28 22:36 |
|---|---|
| Airport | A.N.R. Robinson International Airport (TTCP) |
Arrival
| Time | 2026-04-28 22:53 |
|---|---|
| Airport | Piarco International Airport (TTPP) |
| Time | Latitude | Longitude | Altitude | Speed | Heading |
|---|---|---|---|---|---|
| 2026-04-28 22:28 | 11.15202 | -60.84004 | 55 ft | 0 kts | 4° |
| 2026-04-28 22:30 | 11.15185 | -60.84005 | 54 ft | 3 kts | 4° |
| 2026-04-28 22:30 | 11.15169 | -60.84006 | 54 ft | 6 kts | 4° |
| 2026-04-28 22:30 | 11.15128 | -60.84008 | 52 ft | 8 kts | 344° |
| 2026-04-28 22:31 | 11.15118 | -60.84005 | 50 ft | 8 kts | 305° |
| 2026-04-28 22:31 | 11.15115 | -60.83999 | 49 ft | 0 kts | 280° |
| 2026-04-28 22:32 | 11.15114 | -60.83997 | 48 ft | 0 kts | 280° |
| 2026-04-28 22:32 | 11.15119 | -60.84022 | 50 ft | 9 kts | 281° |
| 2026-04-28 22:33 | 11.15126 | -60.84091 | 54 ft | 9 kts | 263° |
| 2026-04-28 22:33 | 11.15085 | -60.84153 | 54 ft | 13 kts | 233° |
| 2026-04-28 22:33 | 11.15048 | -60.84244 | 52 ft | 16 kts | 272° |
| 2026-04-28 22:33 | 11.15017 | -60.84359 | 54 ft | 19 kts | 242° |
| 2026-04-28 22:34 | 11.15036 | -60.84462 | 55 ft | 13 kts | 354° |
| 2026-04-28 22:34 | 11.15059 | -60.84406 | 54 ft | 0 kts | 95° |
| 2026-04-28 22:35 | 11.15058 | -60.84391 | 54 ft | 13 kts | 95° |
| 2026-04-28 22:35 | 11.15055 | -60.84353 | 54 ft | 21 kts | 95° |
| 2026-04-28 22:35 | 11.15016 | -60.83875 | 53 ft | 109 kts | 94° |
| 2026-04-28 22:36 | 11.14973 | -60.83261 | 59 ft | 152 kts | 95° |
| 2026-04-28 22:36 | 11.14847 | -60.82065 | 495 ft | 174 kts | 98° |
| 2026-04-28 22:36 | 11.14580 | -60.80832 | 1272 ft | 184 kts | 106° |
| 2026-04-28 22:36 | 11.14108 | -60.79561 | 1953 ft | 201 kts | 111° |
| 2026-04-28 22:37 | 11.13440 | -60.78255 | 2694 ft | 213 kts | 126° |
| 2026-04-28 22:37 | 11.12320 | -60.77308 | 3850 ft | 209 kts | 153° |
| 2026-04-28 22:37 | 11.10908 | -60.77067 | 5010 ft | 207 kts | 186° |
| 2026-04-28 22:37 | 11.09609 | -60.77669 | 6086 ft | 215 kts | 217° |
| 2026-04-28 22:38 | 11.08643 | -60.79009 | 6401 ft | 256 kts | 247° |
| 2026-04-28 22:38 | 11.08113 | -60.80803 | 6979 ft | 278 kts | 253° |
| 2026-04-28 22:38 | 11.07515 | -60.82773 | 7583 ft | 294 kts | 249° |
| 2026-04-28 22:38 | 11.06747 | -60.84686 | 8182 ft | 299 kts | 244° |
| 2026-04-28 22:39 | 11.05818 | -60.86605 | 8795 ft | 303 kts | 241° |
| 2026-04-28 22:39 | 11.04807 | -60.88504 | 9385 ft | 308 kts | 240° |
| 2026-04-28 22:39 | 11.03751 | -60.90419 | 9492 ft | 310 kts | 239° |
| 2026-04-28 22:39 | 11.02696 | -60.92316 | 9524 ft | 308 kts | 239° |
| 2026-04-28 22:40 | 11.01637 | -60.94220 | 9569 ft | 310 kts | 239° |
| 2026-04-28 22:40 | 11.00573 | -60.96138 | 9623 ft | 310 kts | 240° |
| 2026-04-28 22:40 | 10.99515 | -60.98051 | 9673 ft | 310 kts | 240° |
| 2026-04-28 22:40 | 10.98453 | -60.99974 | 9726 ft | 311 kts | 240° |
| 2026-04-28 22:41 | 10.97393 | -61.01893 | 9780 ft | 312 kts | 240° |
| 2026-04-28 22:41 | 10.96329 | -61.03821 | 9820 ft | 311 kts | 240° |
| 2026-04-28 22:41 | 10.95267 | -61.05745 | 9869 ft | 313 kts | 240° |
| 2026-04-28 22:41 | 10.94216 | -61.07649 | 9917 ft | 312 kts | 240° |
| 2026-04-28 22:42 | 10.93153 | -61.09573 | 9948 ft | 313 kts | 240° |
| 2026-04-28 22:42 | 10.92086 | -61.11506 | 9984 ft | 312 kts | 240° |
| 2026-04-28 22:42 | 10.91021 | -61.13433 | 9997 ft | 313 kts | 240° |
| 2026-04-28 22:42 | 10.89955 | -61.15363 | 9990 ft | 313 kts | 239° |
| 2026-04-28 22:43 | 10.88888 | -61.17294 | 9991 ft | 312 kts | 240° |
| 2026-04-28 22:43 | 10.87819 | -61.19228 | 9867 ft | 313 kts | 240° |
| 2026-04-28 22:43 | 10.86758 | -61.21148 | 9857 ft | 311 kts | 240° |
| 2026-04-28 22:43 | 10.85694 | -61.23071 | 9856 ft | 313 kts | 240° |
| 2026-04-28 22:44 | 10.84626 | -61.25003 | 9854 ft | 312 kts | 240° |
| 2026-04-28 22:44 | 10.83558 | -61.26933 | 9748 ft | 314 kts | 240° |
| 2026-04-28 22:44 | 10.82485 | -61.28874 | 9397 ft | 313 kts | 240° |
| 2026-04-28 22:44 | 10.81425 | -61.30792 | 9042 ft | 309 kts | 239° |
| 2026-04-28 22:45 | 10.80377 | -61.32686 | 8706 ft | 305 kts | 239° |
| 2026-04-28 22:45 | 10.79342 | -61.34556 | 8353 ft | 301 kts | 239° |
| 2026-04-28 22:45 | 10.78323 | -61.36398 | 8016 ft | 297 kts | 239° |
| 2026-04-28 22:45 | 10.77310 | -61.38228 | 7679 ft | 296 kts | 239° |
| 2026-04-28 22:46 | 10.76317 | -61.40024 | 7352 ft | 295 kts | 239° |
| 2026-04-28 22:46 | 10.75307 | -61.41846 | 7029 ft | 294 kts | 239° |
| 2026-04-28 22:46 | 10.74308 | -61.43648 | 6691 ft | 289 kts | 238° |
| 2026-04-28 22:46 | 10.73330 | -61.45416 | 6371 ft | 285 kts | 238° |
| 2026-04-28 22:47 | 10.72363 | -61.47164 | 6027 ft | 284 kts | 238° |
| 2026-04-28 22:47 | 10.71393 | -61.48913 | 5692 ft | 284 kts | 239° |
| 2026-04-28 22:47 | 10.70395 | -61.50631 | 5321 ft | 279 kts | 231° |
| 2026-04-28 22:47 | 10.68943 | -61.51873 | 4998 ft | 270 kts | 203° |
| 2026-04-28 22:48 | 10.67169 | -61.52289 | 4672 ft | 261 kts | 179° |
| 2026-04-28 22:48 | 10.65361 | -61.52288 | 4323 ft | 258 kts | 177° |
| 2026-04-28 22:48 | 10.63575 | -61.52277 | 3973 ft | 255 kts | 177° |
| 2026-04-28 22:48 | 10.61851 | -61.52095 | 3629 ft | 242 kts | 159° |
| 2026-04-28 22:49 | 10.60483 | -61.51260 | 3401 ft | 222 kts | 133° |
| 2026-04-28 22:49 | 10.59706 | -61.50046 | 3256 ft | 196 kts | 110° |
| 2026-04-28 22:49 | 10.59485 | -61.48666 | 2972 ft | 200 kts | 90° |
| 2026-04-28 22:49 | 10.59542 | -61.47271 | 2700 ft | 198 kts | 86° |
| 2026-04-28 22:50 | 10.59628 | -61.45918 | 2441 ft | 182 kts | 88° |
| 2026-04-28 22:50 | 10.59544 | -61.44665 | 1977 ft | 181 kts | 92° |
| 2026-04-28 22:50 | 10.59520 | -61.43403 | 1570 ft | 172 kts | 89° |
| 2026-04-28 22:50 | 10.59517 | -61.42271 | 1287 ft | 149 kts | 90° |
| 2026-04-28 22:51 | 10.59504 | -61.41268 | 1046 ft | 138 kts | 87° |
| 2026-04-28 22:51 | 10.59550 | -61.40290 | 874 ft | 139 kts | 85° |
| 2026-04-28 22:51 | 10.59606 | -61.39319 | 738 ft | 137 kts | 92° |
| 2026-04-28 22:51 | 10.59550 | -61.38378 | 656 ft | 126 kts | 94° |
| 2026-04-28 22:52 | 10.59541 | -61.37503 | 415 ft | 125 kts | 91° |
| 2026-04-28 22:52 | 10.59540 | -61.36629 | 308 ft | 122 kts | 94° |
| 2026-04-28 22:52 | 10.59536 | -61.35781 | 176 ft | 115 kts | 88° |
| 2026-04-28 22:52 | 10.59538 | -61.34953 | 41 ft | 124 kts | 93° |
| 2026-04-28 22:53 | 10.59532 | -61.34146 | 18 ft | 98 kts | 91° |
| 2026-04-28 22:53 | 10.59537 | -61.33819 | 16 ft | 23 kts | 90° |
| 2026-04-28 22:53 | 10.59536 | -61.33643 | 16 ft | 26 kts | 86° |
| 2026-04-28 22:53 | 10.59603 | -61.33474 | 17 ft | 26 kts | 61° |
| 2026-04-28 22:54 | 10.59712 | -61.33461 | 17 ft | 19 kts | 298° |
| 2026-04-28 22:54 | 10.59709 | -61.33600 | 17 ft | 21 kts | 263° |
| 2026-04-28 22:54 | 10.59719 | -61.33761 | 16 ft | 22 kts | 299° |
| 2026-04-28 22:54 | 10.59766 | -61.33791 | 5 ft | 0 kts | 354° |